sensor_id;sensor_type;location;lat;lon;timestamp;P1;durP1;ratioP1;P2;durP2;ratioP2
19537;SDS011;9914;51.008;4.300;2023-07-09T00:01:58;506.43;;;479.57;;
19537;SDS011;9914;51.008;4.300;2023-07-09T00:04:24;501.00;;;475.07;;
19537;SDS011;9914;51.008;4.300;2023-07-09T00:06:50;496.40;;;470.07;;
19537;SDS011;9914;51.008;4.300;2023-07-09T00:09:20;413.70;;;392.07;;
19537;SDS011;9914;51.008;4.300;2023-07-09T00:11:46;443.53;;;421.23;;
19537;SDS011;9914;51.008;4.300;2023-07-09T00:14:14;457.23;;;433.13;;
19537;SDS011;9914;51.008;4.300;2023-07-09T00:16:43;452.10;;;428.50;;
19537;SDS011;9914;51.008;4.300;2023-07-09T00:19:14;446.43;;;423.13;;
19537;SDS011;9914;51.008;4.300;2023-07-09T00:21:42;360.90;;;342.37;;
19537;SDS011;9914;51.008;4.300;2023-07-09T00:24:11;357.10;;;338.23;;
19537;SDS011;9914;51.008;4.300;2023-07-09T00:26:38;330.93;;;313.80;;
19537;SDS011;9914;51.008;4.300;2023-07-09T00:29:08;285.40;;;270.30;;
19537;SDS011;9914;51.008;4.300;2023-07-09T00:31:37;269.03;;;255.13;;
19537;SDS011;9914;51.008;4.300;2023-07-09T00:34:08;256.53;;;243.53;;
19537;SDS011;9914;51.008;4.300;2023-07-09T00:36:37;238.93;;;227.20;;
19537;SDS011;9914;51.008;4.300;2023-07-09T00:39:03;246.07;;;233.70;;
19537;SDS011;9914;51.008;4.300;2023-07-09T00:41:36;245.60;;;233.50;;
19537;SDS011;9914;51.008;4.300;2023-07-09T00:44:23;243.00;;;230.47;;
19537;SDS011;9914;51.008;4.300;2023-07-09T00:49:32;243.13;;;230.70;;
19537;SDS011;9914;51.008;4.300;2023-07-09T00:54:50;259.57;;;246.47;;
19537;SDS011;9914;51.008;4.300;2023-07-09T00:57:19;315.47;;;299.97;;
19537;SDS011;9914;51.008;4.300;2023-07-09T00:59:49;344.30;;;327.27;;
19537;SDS011;9914;51.008;4.300;2023-07-09T01:02:32;365.73;;;348.20;;
19537;SDS011;9914;51.008;4.300;2023-07-09T01:04:59;429.87;;;408.87;;
19537;SDS011;9914;51.008;4.300;2023-07-09T01:07:30;428.27;;;407.83;;
19537;SDS011;9914;51.008;4.300;2023-07-09T01:09:56;462.43;;;439.93;;
19537;SDS011;9914;51.008;4.300;2023-07-09T01:12:21;422.67;;;402.67;;
19537;SDS011;9914;51.008;4.300;2023-07-09T01:14:48;364.33;;;347.20;;
19537;SDS011;9914;51.008;4.300;2023-07-09T01:17:16;351.73;;;335.20;;
19537;SDS011;9914;51.008;4.300;2023-07-09T01:19:43;388.13;;;369.53;;
19537;SDS011;9914;51.008;4.300;2023-07-09T01:22:14;406.07;;;387.03;;
19537;SDS011;9914;51.008;4.300;2023-07-09T01:24:51;440.13;;;419.20;;
19537;SDS011;9914;51.008;4.300;2023-07-09T01:27:26;436.20;;;415.27;;
19537;SDS011;9914;51.008;4.300;2023-07-09T01:29:55;467.80;;;445.40;;
19537;SDS011;9914;51.008;4.300;2023-07-09T01:32:22;464.70;;;442.77;;
19537;SDS011;9914;51.008;4.300;2023-07-09T01:34:51;465.63;;;443.37;;
19537;SDS011;9914;51.008;4.300;2023-07-09T01:37:20;479.47;;;456.70;;
19537;SDS011;9914;51.008;4.300;2023-07-09T01:39:49;482.83;;;460.13;;
19537;SDS011;9914;51.008;4.300;2023-07-09T01:42:16;498.47;;;475.60;;
19537;SDS011;9914;51.008;4.300;2023-07-09T01:44:43;498.17;;;474.93;;
19537;SDS011;9914;51.008;4.300;2023-07-09T01:47:11;488.87;;;466.27;;
19537;SDS011;9914;51.008;4.300;2023-07-09T01:49:37;471.37;;;450.03;;
19537;SDS011;9914;51.008;4.300;2023-07-09T01:52:05;490.80;;;468.43;;
19537;SDS011;9914;51.008;4.300;2023-07-09T01:54:33;481.10;;;458.93;;
19537;SDS011;9914;51.008;4.300;2023-07-09T01:57:13;514.70;;;490.90;;
19537;SDS011;9914;51.008;4.300;2023-07-09T01:59:44;476.73;;;454.20;;
19537;SDS011;9914;51.008;4.300;2023-07-09T02:02:11;475.20;;;453.03;;
19537;SDS011;9914;51.008;4.300;2023-07-09T02:04:44;501.80;;;479.00;;
19537;SDS011;9914;51.008;4.300;2023-07-09T02:07:14;472.37;;;450.43;;
19537;SDS011;9914;51.008;4.300;2023-07-09T02:09:40;492.93;;;470.30;;
19537;SDS011;9914;51.008;4.300;2023-07-09T02:12:07;454.13;;;432.90;;
19537;SDS011;9914;51.008;4.300;2023-07-09T02:14:34;423.47;;;403.87;;
19537;SDS011;9914;51.008;4.300;2023-07-09T02:16:59;404.27;;;385.83;;
19537;SDS011;9914;51.008;4.300;2023-07-09T02:19:25;399.70;;;380.80;;
19537;SDS011;9914;51.008;4.300;2023-07-09T02:21:50;382.40;;;364.60;;
19537;SDS011;9914;51.008;4.300;2023-07-09T02:24:16;361.13;;;344.73;;
19537;SDS011;9914;51.008;4.300;2023-07-09T02:26:41;383.00;;;364.57;;
19537;SDS011;9914;51.008;4.300;2023-07-09T02:29:07;391.73;;;372.97;;
19537;SDS011;9914;51.008;4.300;2023-07-09T02:31:33;410.30;;;391.67;;
19537;SDS011;9914;51.008;4.300;2023-07-09T02:33:59;413.87;;;395.00;;
19537;SDS011;9914;51.008;4.300;2023-07-09T02:36:25;438.63;;;418.63;;
19537;SDS011;9914;51.008;4.300;2023-07-09T02:38:50;464.87;;;443.80;;
19537;SDS011;9914;51.008;4.300;2023-07-09T02:41:16;463.40;;;442.20;;
19537;SDS011;9914;51.008;4.300;2023-07-09T02:43:42;485.27;;;462.83;;
19537;SDS011;9914;51.008;4.300;2023-07-09T02:46:07;460.33;;;439.17;;
19537;SDS011;9914;51.008;4.300;2023-07-09T02:48:33;488.50;;;466.17;;
19537;SDS011;9914;51.008;4.300;2023-07-09T02:50:59;472.10;;;450.63;;
19537;SDS011;9914;51.008;4.300;2023-07-09T02:53:24;465.97;;;445.17;;
19537;SDS011;9914;51.008;4.300;2023-07-09T02:55:50;464.93;;;443.77;;
19537;SDS011;9914;51.008;4.300;2023-07-09T02:58:16;454.07;;;433.60;;
19537;SDS011;9914;51.008;4.300;2023-07-09T03:00:42;459.50;;;438.70;;
19537;SDS011;9914;51.008;4.300;2023-07-09T03:03:07;516.87;;;493.47;;
19537;SDS011;9914;51.008;4.300;2023-07-09T03:05:33;511.63;;;486.20;;
19537;SDS011;9914;51.008;4.300;2023-07-09T03:07:59;432.97;;;412.80;;
19537;SDS011;9914;51.008;4.300;2023-07-09T03:10:25;396.97;;;378.43;;
19537;SDS011;9914;51.008;4.300;2023-07-09T03:12:53;421.50;;;401.67;;
19537;SDS011;9914;51.008;4.300;2023-07-09T03:15:18;430.33;;;409.73;;
19537;SDS011;9914;51.008;4.300;2023-07-09T03:17:44;399.97;;;380.80;;
19537;SDS011;9914;51.008;4.300;2023-07-09T03:20:10;409.97;;;390.50;;
19537;SDS011;9914;51.008;4.300;2023-07-09T03:22:36;405.60;;;386.93;;
19537;SDS011;9914;51.008;4.300;2023-07-09T03:25:01;348.40;;;331.87;;
19537;SDS011;9914;51.008;4.300;2023-07-09T03:27:27;341.13;;;324.83;;
19537;SDS011;9914;51.008;4.300;2023-07-09T03:29:53;397.73;;;378.97;;
19537;SDS011;9914;51.008;4.300;2023-07-09T03:32:18;412.60;;;393.23;;
19537;SDS011;9914;51.008;4.300;2023-07-09T03:34:44;383.03;;;364.97;;
19537;SDS011;9914;51.008;4.300;2023-07-09T03:37:09;355.17;;;338.03;;
19537;SDS011;9914;51.008;4.300;2023-07-09T03:39:35;338.07;;;322.23;;
19537;SDS011;9914;51.008;4.300;2023-07-09T03:42:01;343.03;;;327.03;;
19537;SDS011;9914;51.008;4.300;2023-07-09T03:44:26;312.20;;;297.20;;
19537;SDS011;9914;51.008;4.300;2023-07-09T03:46:52;299.83;;;285.70;;
19537;SDS011;9914;51.008;4.300;2023-07-09T03:49:17;302.87;;;288.67;;
19537;SDS011;9914;51.008;4.300;2023-07-09T03:51:43;308.43;;;294.33;;
19537;SDS011;9914;51.008;4.300;2023-07-09T03:54:09;299.43;;;285.83;;
19537;SDS011;9914;51.008;4.300;2023-07-09T03:56:35;303.97;;;290.17;;
19537;SDS011;9914;51.008;4.300;2023-07-09T03:59:02;279.30;;;266.80;;
19537;SDS011;9914;51.008;4.300;2023-07-09T04:01:27;273.90;;;261.13;;
19537;SDS011;9914;51.008;4.300;2023-07-09T04:03:53;283.03;;;270.23;;
19537;SDS011;9914;51.008;4.300;2023-07-09T04:06:19;271.17;;;258.60;;
19537;SDS011;9914;51.008;4.300;2023-07-09T04:08:44;282.43;;;269.27;;
19537;SDS011;9914;51.008;4.300;2023-07-09T04:11:10;284.97;;;271.70;;
19537;SDS011;9914;51.008;4.300;2023-07-09T04:13:36;300.47;;;286.80;;
19537;SDS011;9914;51.008;4.300;2023-07-09T04:16:01;304.23;;;290.37;;
19537;SDS011;9914;51.008;4.300;2023-07-09T04:18:27;318.17;;;303.00;;
19537;SDS011;9914;51.008;4.300;2023-07-09T04:20:52;318.53;;;303.53;;
19537;SDS011;9914;51.008;4.300;2023-07-09T04:23:18;342.53;;;326.17;;
19537;SDS011;9914;51.008;4.300;2023-07-09T04:25:45;382.60;;;364.33;;
19537;SDS011;9914;51.008;4.300;2023-07-09T04:28:10;391.00;;;372.00;;
19537;SDS011;9914;51.008;4.300;2023-07-09T04:30:36;427.83;;;407.13;;
19537;SDS011;9914;51.008;4.300;2023-07-09T04:33:02;460.47;;;438.13;;
19537;SDS011;9914;51.008;4.300;2023-07-09T04:35:28;462.10;;;439.40;;
19537;SDS011;9914;51.008;4.300;2023-07-09T04:37:53;484.33;;;461.00;;
19537;SDS011;9914;51.008;4.300;2023-07-09T04:40:19;520.13;;;494.67;;
19537;SDS011;9914;51.008;4.300;2023-07-09T04:42:45;551.60;;;525.20;;
19537;SDS011;9914;51.008;4.300;2023-07-09T04:45:11;553.93;;;527.30;;
19537;SDS011;9914;51.008;4.300;2023-07-09T04:47:37;555.27;;;528.63;;
19537;SDS011;9914;51.008;4.300;2023-07-09T04:50:04;596.07;;;564.70;;
19537;SDS011;9914;51.008;4.300;2023-07-09T04:52:31;523.90;;;498.23;;
19537;SDS011;9914;51.008;4.300;2023-07-09T04:54:57;486.30;;;463.17;;
19537;SDS011;9914;51.008;4.300;2023-07-09T04:57:23;408.13;;;388.63;;
19537;SDS011;9914;51.008;4.300;2023-07-09T04:59:50;371.77;;;354.13;;
19537;SDS011;9914;51.008;4.300;2023-07-09T05:02:15;373.77;;;355.53;;
19537;SDS011;9914;51.008;4.300;2023-07-09T05:04:41;398.87;;;379.07;;
19537;SDS011;9914;51.008;4.300;2023-07-09T05:07:06;424.03;;;403.23;;
19537;SDS011;9914;51.008;4.300;2023-07-09T05:09:32;393.63;;;374.13;;
19537;SDS011;9914;51.008;4.300;2023-07-09T05:11:58;414.37;;;393.77;;
19537;SDS011;9914;51.008;4.300;2023-07-09T05:14:25;444.17;;;422.80;;
19537;SDS011;9914;51.008;4.300;2023-07-09T05:16:52;416.57;;;396.20;;
19537;SDS011;9914;51.008;4.300;2023-07-09T05:19:18;360.27;;;342.03;;
19537;SDS011;9914;51.008;4.300;2023-07-09T05:21:43;410.43;;;389.83;;
19537;SDS011;9914;51.008;4.300;2023-07-09T05:24:09;400.10;;;380.30;;
19537;SDS011;9914;51.008;4.300;2023-07-09T05:26:35;343.73;;;325.83;;
19537;SDS011;9914;51.008;4.300;2023-07-09T05:29:02;298.50;;;283.03;;
19537;SDS011;9914;51.008;4.300;2023-07-09T05:31:29;317.50;;;301.43;;
19537;SDS011;9914;51.008;4.300;2023-07-09T05:33:55;286.53;;;271.57;;
19537;SDS011;9914;51.008;4.300;2023-07-09T05:36:21;261.60;;;246.97;;
19537;SDS011;9914;51.008;4.300;2023-07-09T05:38:46;250.87;;;236.90;;
19537;SDS011;9914;51.008;4.300;2023-07-09T05:41:12;217.87;;;205.10;;
19537;SDS011;9914;51.008;4.300;2023-07-09T05:43:41;239.13;;;225.80;;
19537;SDS011;9914;51.008;4.300;2023-07-09T05:46:08;262.27;;;248.13;;
19537;SDS011;9914;51.008;4.300;2023-07-09T05:48:34;303.60;;;286.70;;
19537;SDS011;9914;51.008;4.300;2023-07-09T05:50:59;228.00;;;214.87;;
19537;SDS011;9914;51.008;4.300;2023-07-09T05:53:25;199.77;;;187.80;;
19537;SDS011;9914;51.008;4.300;2023-07-09T05:55:54;213.07;;;200.20;;
19537;SDS011;9914;51.008;4.300;2023-07-09T05:58:21;217.00;;;203.17;;
19537;SDS011;9914;51.008;4.300;2023-07-09T06:00:51;219.97;;;206.53;;
19537;SDS011;9914;51.008;4.300;2023-07-09T06:03:19;240.57;;;225.57;;
19537;SDS011;9914;51.008;4.300;2023-07-09T06:05:46;254.00;;;238.43;;
19537;SDS011;9914;51.008;4.300;2023-07-09T06:08:14;283.77;;;266.87;;
19537;SDS011;9914;51.008;4.300;2023-07-09T06:11:17;302.47;;;283.83;;
19537;SDS011;9914;51.008;4.300;2023-07-09T06:13:35;352.60;;;331.87;;
19537;SDS011;9914;51.008;4.300;2023-07-09T06:16:01;361.77;;;340.53;;
19537;SDS011;9914;51.008;4.300;2023-07-09T06:18:27;411.87;;;388.70;;
19537;SDS011;9914;51.008;4.300;2023-07-09T06:20:55;495.57;;;466.50;;
19537;SDS011;9914;51.008;4.300;2023-07-09T06:23:22;399.13;;;376.23;;
19537;SDS011;9914;51.008;4.300;2023-07-09T06:25:48;477.17;;;450.17;;
19537;SDS011;9914;51.008;4.300;2023-07-09T06:28:15;572.07;;;540.07;;
19537;SDS011;9914;51.008;4.300;2023-07-09T06:30:45;589.67;;;556.50;;
19537;SDS011;9914;51.008;4.300;2023-07-09T06:33:11;655.03;;;617.13;;
19537;SDS011;9914;51.008;4.300;2023-07-09T06:35:38;687.77;;;648.10;;
19537;SDS011;9914;51.008;4.300;2023-07-09T06:38:07;714.97;;;673.57;;
19537;SDS011;9914;51.008;4.300;2023-07-09T06:40:32;846.63;;;789.67;;
19537;SDS011;9914;51.008;4.300;2023-07-09T06:42:58;893.17;;;838.87;;
19537;SDS011;9914;51.008;4.300;2023-07-09T06:45:24;805.17;;;757.37;;
19537;SDS011;9914;51.008;4.300;2023-07-09T06:47:50;953.27;;;886.00;;
19537;SDS011;9914;51.008;4.300;2023-07-09T06:50:15;931.37;;;873.30;;
19537;SDS011;9914;51.008;4.300;2023-07-09T06:52:41;913.93;;;857.77;;
19537;SDS011;9914;51.008;4.300;2023-07-09T06:55:07;892.03;;;836.30;;
19537;SDS011;9914;51.008;4.300;2023-07-09T06:57:33;944.43;;;879.37;;
19537;SDS011;9914;51.008;4.300;2023-07-09T06:59:59;689.50;;;652.40;;
19537;SDS011;9914;51.008;4.300;2023-07-09T07:02:24;593.23;;;562.87;;
19537;SDS011;9914;51.008;4.300;2023-07-09T07:04:50;754.73;;;707.97;;
19537;SDS011;9914;51.008;4.300;2023-07-09T07:07:16;637.63;;;604.53;;
19537;SDS011;9914;51.008;4.300;2023-07-09T07:09:41;614.03;;;581.77;;
19537;SDS011;9914;51.008;4.300;2023-07-09T07:12:07;638.23;;;605.20;;
19537;SDS011;9914;51.008;4.300;2023-07-09T07:14:33;628.17;;;596.60;;
19537;SDS011;9914;51.008;4.300;2023-07-09T07:16:59;656.27;;;621.40;;
19537;SDS011;9914;51.008;4.300;2023-07-09T07:19:24;643.17;;;609.70;;
19537;SDS011;9914;51.008;4.300;2023-07-09T07:21:51;647.47;;;613.97;;
19537;SDS011;9914;51.008;4.300;2023-07-09T07:24:16;659.23;;;625.37;;
19537;SDS011;9914;51.008;4.300;2023-07-09T07:26:42;688.27;;;652.10;;
19537;SDS011;9914;51.008;4.300;2023-07-09T07:29:07;724.93;;;686.43;;
19537;SDS011;9914;51.008;4.300;2023-07-09T07:31:33;736.53;;;696.07;;
19537;SDS011;9914;51.008;4.300;2023-07-09T07:33:58;751.47;;;709.97;;
19537;SDS011;9914;51.008;4.300;2023-07-09T07:36:24;764.97;;;721.50;;
19537;SDS011;9914;51.008;4.300;2023-07-09T07:38:50;804.13;;;757.80;;
19537;SDS011;9914;51.008;4.300;2023-07-09T07:41:15;752.80;;;710.47;;
19537;SDS011;9914;51.008;4.300;2023-07-09T07:43:41;729.90;;;688.43;;
19537;SDS011;9914;51.008;4.300;2023-07-09T07:46:07;792.50;;;746.63;;
19537;SDS011;9914;51.008;4.300;2023-07-09T07:48:33;742.20;;;700.73;;
19537;SDS011;9914;51.008;4.300;2023-07-09T07:51:02;773.97;;;730.10;;
19537;SDS011;9914;51.008;4.300;2023-07-09T07:53:29;800.57;;;755.57;;
19537;SDS011;9914;51.008;4.300;2023-07-09T07:55:55;773.67;;;730.13;;
19537;SDS011;9914;51.008;4.300;2023-07-09T07:58:21;812.63;;;765.07;;
19537;SDS011;9914;51.008;4.300;2023-07-09T08:00:47;773.30;;;729.40;;
19537;SDS011;9914;51.008;4.300;2023-07-09T08:03:13;749.03;;;708.07;;
19537;SDS011;9914;51.008;4.300;2023-07-09T08:05:39;781.07;;;737.13;;
19537;SDS011;9914;51.008;4.300;2023-07-09T08:08:05;871.43;;;813.60;;
19537;SDS011;9914;51.008;4.300;2023-07-09T08:10:31;859.90;;;806.83;;
19537;SDS011;9914;51.008;4.300;2023-07-09T08:12:57;866.90;;;814.63;;
19537;SDS011;9914;51.008;4.300;2023-07-09T08:15:23;870.13;;;818.70;;
19537;SDS011;9914;51.008;4.300;2023-07-09T08:17:49;792.77;;;747.77;;
19537;SDS011;9914;51.008;4.300;2023-07-09T08:20:15;769.80;;;726.67;;
19537;SDS011;9914;51.008;4.300;2023-07-09T08:22:41;836.90;;;788.00;;
19537;SDS011;9914;51.008;4.300;2023-07-09T08:25:07;826.03;;;778.47;;
19537;SDS011;9914;51.008;4.300;2023-07-09T08:27:32;785.17;;;741.97;;
19537;SDS011;9914;51.008;4.300;2023-07-09T08:29:58;870.47;;;818.60;;
19537;SDS011;9914;51.008;4.300;2023-07-09T08:32:24;825.70;;;778.63;;
19537;SDS011;9914;51.008;4.300;2023-07-09T08:34:49;892.57;;;838.47;;
19537;SDS011;9914;51.008;4.300;2023-07-09T08:37:15;984.90;;;917.73;;
19537;SDS011;9914;51.008;4.300;2023-07-09T08:39:40;903.97;;;848.40;;
19537;SDS011;9914;51.008;4.300;2023-07-09T08:42:10;987.10;;;916.50;;
19537;SDS011;9914;51.008;4.300;2023-07-09T08:47:13;822.03;;;775.90;;
19537;SDS011;9914;51.008;4.300;2023-07-09T08:49:49;833.00;;;785.37;;
19537;SDS011;9914;51.008;4.300;2023-07-09T08:54:51;823.73;;;777.70;;
19537;SDS011;9914;51.008;4.300;2023-07-09T08:57:27;841.00;;;793.33;;
19537;SDS011;9914;51.008;4.300;2023-07-09T09:00:01;838.73;;;790.63;;
19537;SDS011;9914;51.008;4.300;2023-07-09T09:02:35;781.70;;;739.30;;
19537;SDS011;9914;51.008;4.300;2023-07-09T09:05:09;789.67;;;746.60;;
19537;SDS011;9914;51.008;4.300;2023-07-09T09:07:43;854.80;;;804.70;;
19537;SDS011;9914;51.008;4.300;2023-07-09T09:10:13;881.53;;;829.03;;
19537;SDS011;9914;51.008;4.300;2023-07-09T09:12:48;955.23;;;894.90;;
19537;SDS011;9914;51.008;4.300;2023-07-09T09:15:41;995.63;;;930.83;;
19537;SDS011;9914;51.008;4.300;2023-07-09T09:18:20;959.97;;;897.47;;
19537;SDS011;9914;51.008;4.300;2023-07-09T09:21:02;965.37;;;903.67;;
19537;SDS011;9914;51.008;4.300;2023-07-09T09:23:38;1007.63;;;938.80;;
19537;SDS011;9914;51.008;4.300;2023-07-09T09:26:14;975.37;;;912.37;;
19537;SDS011;9914;51.008;4.300;2023-07-09T09:28:43;978.60;;;915.47;;
19537;SDS011;9914;51.008;4.300;2023-07-09T09:31:12;920.83;;;864.30;;
19537;SDS011;9914;51.008;4.300;2023-07-09T09:33:42;951.77;;;891.60;;
19537;SDS011;9914;51.008;4.300;2023-07-09T09:36:14;887.63;;;833.03;;
19537;SDS011;9914;51.008;4.300;2023-07-09T09:38:43;937.60;;;878.93;;
19537;SDS011;9914;51.008;4.300;2023-07-09T09:41:13;1037.60;;;964.70;;
19537;SDS011;9914;51.008;4.300;2023-07-09T09:43:44;1030.97;;;959.87;;
19537;SDS011;9914;51.008;4.300;2023-07-09T09:46:16;1023.20;;;952.67;;
19537;SDS011;9914;51.008;4.300;2023-07-09T09:48:47;1024.10;;;955.03;;
19537;SDS011;9914;51.008;4.300;2023-07-09T09:51:15;1003.10;;;936.40;;
19537;SDS011;9914;51.008;4.300;2023-07-09T09:53:47;995.10;;;929.80;;
19537;SDS011;9914;51.008;4.300;2023-07-09T09:56:24;1017.53;;;948.00;;
19537;SDS011;9914;51.008;4.300;2023-07-09T09:58:56;1027.33;;;956.30;;
19537;SDS011;9914;51.008;4.300;2023-07-09T10:01:27;1002.87;;;935.87;;
19537;SDS011;9914;51.008;4.300;2023-07-09T10:03:56;996.40;;;931.37;;
19537;SDS011;9914;51.008;4.300;2023-07-09T10:06:45;980.83;;;917.20;;
19537;SDS011;9914;51.008;4.300;2023-07-09T10:12:11;1022.17;;;954.43;;
19537;SDS011;9914;51.008;4.300;2023-07-09T10:14:51;942.97;;;884.97;;
19537;SDS011;9914;51.008;4.300;2023-07-09T10:17:38;904.43;;;851.27;;
19537;SDS011;9914;51.008;4.300;2023-07-09T10:20:25;921.20;;;865.57;;
19537;SDS011;9914;51.008;4.300;2023-07-09T10:23:00;925.70;;;869.97;;
19537;SDS011;9914;51.008;4.300;2023-07-09T10:25:29;909.77;;;856.03;;
19537;SDS011;9914;51.008;4.300;2023-07-09T10:30:45;918.70;;;863.80;;
19537;SDS011;9914;51.008;4.300;2023-07-09T10:39:27;1050.53;;;974.77;;
19537;SDS011;9914;51.008;4.300;2023-07-09T10:41:38;979.60;;;915.57;;
19537;SDS011;9914;51.008;4.300;2023-07-09T10:46:50;1013.20;;;944.63;;
19537;SDS011;9914;51.008;4.300;2023-07-09T10:49:20;1018.33;;;948.90;;
19537;SDS011;9914;51.008;4.300;2023-07-09T10:51:49;1017.77;;;948.57;;
19537;SDS011;9914;51.008;4.300;2023-07-09T10:54:21;1009.47;;;941.10;;
19537;SDS011;9914;51.008;4.300;2023-07-09T10:57:17;986.57;;;921.50;;
19537;SDS011;9914;51.008;4.300;2023-07-09T10:59:49;972.27;;;909.53;;
19537;SDS011;9914;51.008;4.300;2023-07-09T11:04:55;1014.07;;;945.53;;
19537;SDS011;9914;51.008;4.300;2023-07-09T11:10:34;934.00;;;875.43;;
19537;SDS011;9914;51.008;4.300;2023-07-09T11:13:11;838.80;;;792.33;;
19537;SDS011;9914;51.008;4.300;2023-07-09T11:15:45;822.93;;;777.87;;
19537;SDS011;9914;51.008;4.300;2023-07-09T11:18:16;861.93;;;813.40;;
19537;SDS011;9914;51.008;4.300;2023-07-09T11:20:54;859.70;;;811.47;;
19537;SDS011;9914;51.008;4.300;2023-07-09T11:23:43;852.50;;;804.83;;
19537;SDS011;9914;51.008;4.300;2023-07-09T11:26:25;884.70;;;832.90;;
19537;SDS011;9914;51.008;4.300;2023-07-09T11:29:05;940.60;;;882.60;;
19537;SDS011;9914;51.008;4.300;2023-07-09T11:31:40;871.03;;;821.53;;
19537;SDS011;9914;51.008;4.300;2023-07-09T11:39:29;901.20;;;847.33;;
19537;SDS011;9914;51.008;4.300;2023-07-09T11:41:57;859.80;;;811.17;;
19537;SDS011;9914;51.008;4.300;2023-07-09T11:44:24;858.73;;;810.60;;
19537;SDS011;9914;51.008;4.300;2023-07-09T11:50:06;893.30;;;841.07;;
19537;SDS011;9914;51.008;4.300;2023-07-09T11:53:14;902.80;;;848.63;;
19537;SDS011;9914;51.008;4.300;2023-07-09T11:55:47;921.97;;;865.73;;
19537;SDS011;9914;51.008;4.300;2023-07-09T11:58:14;959.57;;;898.73;;
19537;SDS011;9914;51.008;4.300;2023-07-09T12:00:45;978.23;;;915.17;;
19537;SDS011;9914;51.008;4.300;2023-07-09T12:03:24;1002.63;;;935.40;;
19537;SDS011;9914;51.008;4.300;2023-07-09T12:06:17;1090.07;;;999.17;;
19537;SDS011;9914;51.008;4.300;2023-07-09T12:08:46;1156.83;;;999.90;;
19537;SDS011;9914;51.008;4.300;2023-07-09T12:11:24;1017.20;;;948.07;;
19537;SDS011;9914;51.008;4.300;2023-07-09T12:13:54;1074.93;;;999.43;;
19537;SDS011;9914;51.008;4.300;2023-07-09T12:16:38;1023.60;;;954.70;;
19537;SDS011;9914;51.008;4.300;2023-07-09T12:19:05;1058.27;;;982.13;;
19537;SDS011;9914;51.008;4.300;2023-07-09T12:21:31;1063.53;;;987.67;;
19537;SDS011;9914;51.008;4.300;2023-07-09T12:23:59;1022.20;;;954.00;;
19537;SDS011;9914;51.008;4.300;2023-07-09T12:26:26;1021.87;;;953.93;;
19537;SDS011;9914;51.008;4.300;2023-07-09T12:28:57;996.17;;;932.33;;
19537;SDS011;9914;51.008;4.300;2023-07-09T12:31:30;953.13;;;894.17;;
19537;SDS011;9914;51.008;4.300;2023-07-09T12:33:56;971.07;;;909.97;;
19537;SDS011;9914;51.008;4.300;2023-07-09T12:36:24;803.20;;;758.67;;
19537;SDS011;9914;51.008;4.300;2023-07-09T12:38:51;681.00;;;647.47;;
19537;SDS011;9914;51.008;4.300;2023-07-09T12:41:22;796.87;;;750.83;;
19537;SDS011;9914;51.008;4.300;2023-07-09T12:43:48;1038.17;;;961.37;;
19537;SDS011;9914;51.008;4.300;2023-07-09T12:46:15;840.57;;;792.67;;
19537;SDS011;9914;51.008;4.300;2023-07-09T12:48:41;565.17;;;535.60;;
19537;SDS011;9914;51.008;4.300;2023-07-09T12:51:07;346.97;;;329.63;;
19537;SDS011;9914;51.008;4.300;2023-07-09T12:53:35;362.60;;;344.47;;
19537;SDS011;9914;51.008;4.300;2023-07-09T12:56:02;184.97;;;176.13;;
19537;SDS011;9914;51.008;4.300;2023-07-09T12:58:36;240.83;;;228.87;;
19537;SDS011;9914;51.008;4.300;2023-07-09T13:01:08;450.87;;;427.97;;
19537;SDS011;9914;51.008;4.300;2023-07-09T13:03:40;397.33;;;378.20;;
19537;SDS011;9914;51.008;4.300;2023-07-09T13:06:06;325.83;;;309.70;;
19537;SDS011;9914;51.008;4.300;2023-07-09T13:08:58;405.57;;;386.20;;
19537;SDS011;9914;51.008;4.300;2023-07-09T13:11:25;398.70;;;380.53;;
19537;SDS011;9914;51.008;4.300;2023-07-09T13:13:58;354.93;;;339.73;;
19537;SDS011;9914;51.008;4.300;2023-07-09T13:16:27;340.30;;;325.83;;
19537;SDS011;9914;51.008;4.300;2023-07-09T13:18:53;297.63;;;286.00;;
19537;SDS011;9914;51.008;4.300;2023-07-09T13:21:19;289.73;;;277.67;;
19537;SDS011;9914;51.008;4.300;2023-07-09T13:23:46;266.47;;;255.90;;
19537;SDS011;9914;51.008;4.300;2023-07-09T13:26:15;231.03;;;222.00;;
19537;SDS011;9914;51.008;4.300;2023-07-09T13:28:41;208.50;;;200.30;;
19537;SDS011;9914;51.008;4.300;2023-07-09T13:31:13;206.50;;;198.27;;
19537;SDS011;9914;51.008;4.300;2023-07-09T13:33:41;278.20;;;263.60;;
19537;SDS011;9914;51.008;4.300;2023-07-09T13:36:14;217.90;;;209.13;;
19537;SDS011;9914;51.008;4.300;2023-07-09T13:38:40;204.27;;;196.17;;
19537;SDS011;9914;51.008;4.300;2023-07-09T13:41:10;216.97;;;207.73;;
19537;SDS011;9914;51.008;4.300;2023-07-09T13:43:42;210.17;;;201.53;;
19537;SDS011;9914;51.008;4.300;2023-07-09T13:46:10;278.00;;;266.70;;
19537;SDS011;9914;51.008;4.300;2023-07-09T13:48:36;259.53;;;248.87;;
19537;SDS011;9914;51.008;4.300;2023-07-09T13:51:15;208.63;;;200.20;;
19537;SDS011;9914;51.008;4.300;2023-07-09T13:53:42;220.20;;;210.93;;
19537;SDS011;9914;51.008;4.300;2023-07-09T13:56:08;242.70;;;232.07;;
19537;SDS011;9914;51.008;4.300;2023-07-09T13:58:33;276.97;;;264.63;;
19537;SDS011;9914;51.008;4.300;2023-07-09T14:01:01;241.43;;;231.37;;
19537;SDS011;9914;51.008;4.300;2023-07-09T14:03:35;231.73;;;221.73;;
19537;SDS011;9914;51.008;4.300;2023-07-09T14:06:01;373.93;;;349.00;;
19537;SDS011;9914;51.008;4.300;2023-07-09T14:08:27;261.17;;;249.23;;
19537;SDS011;9914;51.008;4.300;2023-07-09T14:10:53;271.23;;;259.17;;
19537;SDS011;9914;51.008;4.300;2023-07-09T14:13:20;572.67;;;546.43;;
19537;SDS011;9914;51.008;4.300;2023-07-09T14:15:48;321.63;;;307.13;;
19537;SDS011;9914;51.008;4.300;2023-07-09T14:18:17;153.73;;;146.83;;
19537;SDS011;9914;51.008;4.300;2023-07-09T14:20:45;929.43;;;856.87;;
19537;SDS011;9914;51.008;4.300;2023-07-09T14:23:11;851.27;;;803.27;;
19537;SDS011;9914;51.008;4.300;2023-07-09T14:25:38;742.03;;;701.43;;
19537;SDS011;9914;51.008;4.300;2023-07-09T14:28:08;757.53;;;716.57;;
19537;SDS011;9914;51.008;4.300;2023-07-09T14:30:36;782.90;;;740.47;;
19537;SDS011;9914;51.008;4.300;2023-07-09T14:33:04;935.30;;;874.73;;
19537;SDS011;9914;51.008;4.300;2023-07-09T14:35:33;508.17;;;486.83;;
19537;SDS011;9914;51.008;4.300;2023-07-09T14:38:01;463.47;;;444.50;;
19537;SDS011;9914;51.008;4.300;2023-07-09T14:40:26;437.27;;;419.57;;
19537;SDS011;9914;51.008;4.300;2023-07-09T14:42:52;397.57;;;381.77;;
19537;SDS011;9914;51.008;4.300;2023-07-09T14:47:45;412.53;;;395.83;;
19537;SDS011;9914;51.008;4.300;2023-07-09T14:50:12;463.50;;;444.57;;
19537;SDS011;9914;51.008;4.300;2023-07-09T14:52:38;404.83;;;388.43;;
19537;SDS011;9914;51.008;4.300;2023-07-09T14:55:05;562.13;;;537.33;;
19537;SDS011;9914;51.008;4.300;2023-07-09T14:57:34;520.27;;;497.80;;
19537;SDS011;9914;51.008;4.300;2023-07-09T15:00:01;534.50;;;511.87;;